Time;durP1;ratioP1;P1;durP2;ratioP2;P2;SDS_P1;SDS_P2;PMS_P1;PMS_P2;Temp;Humidity;BMP_temperature;BMP_pressure;BME280_temperature;BME280_humidity;BME280_pressure;Samples;Min_cycle;Max_cycle;Signal;HPM_P1;HPM_P2
2022/10/04 00:02:20;;;;;;;;;;;25.90;99.90;;;;;;5034929;28;19913;-61
2022/10/04 00:04:50;;;;;;;;;;;25.90;99.90;;;;;;5034391;28;19951;-62
2022/10/04 00:07:17;;;;;;;;;;;25.90;99.90;;;;;;5034717;28;19974;-61
2022/10/04 00:09:48;;;;;;;;;;;26.00;99.90;;;;;;5034498;28;20387;-61
2022/10/04 00:12:20;;;;;;;;;;;26.00;99.90;;;;;;5034624;28;19984;-61
2022/10/04 00:14:46;;;;;;;;;;;26.00;99.90;;;;;;5034651;28;20345;-61
2022/10/04 00:17:12;;;;;;;;;;;26.00;99.90;;;;;;5034743;28;20057;-62
2022/10/04 00:19:41;;;;;;;;;;;26.00;99.90;;;;;;5034385;28;19909;-60
2022/10/04 00:22:09;;;;;;;;;;;26.10;99.90;;;;;;5034611;28;19999;-62
2022/10/04 00:24:35;;;;;;;;;;;26.00;99.90;;;;;;5034738;28;20246;-62
2022/10/04 00:27:18;;;;;;;;;;;26.00;99.90;;;;;;5034530;28;19982;-61
2022/10/04 00:29:48;;;;;;;;;;;25.90;99.90;;;;;;5034286;28;20250;-60
2022/10/04 00:32:14;;;;;;;;;;;25.80;99.90;;;;;;5034347;28;19905;-60
2022/10/04 00:34:52;;;;;;;;;;;25.70;99.90;;;;;;5034166;28;19928;-60
2022/10/04 00:37:18;;;;;;;;;;;25.60;99.90;;;;;;5034074;28;20021;-60
2022/10/04 00:40:22;;;;;;;;;;;25.60;99.90;;;;;;5033993;28;20364;-60
2022/10/04 00:42:54;;;;;;;;;;;25.40;99.90;;;;;;4995394;28;19914;-62
2022/10/04 00:45:34;;;;;;;;;;;25.30;99.90;;;;;;5011757;28;19906;-61
2022/10/04 00:48:04;;;;;;;;;;;25.30;99.90;;;;;;5024818;28;20124;-60
2022/10/04 00:50:33;;;;;;;;;;;25.10;99.90;;;;;;5033916;28;19905;-61
2022/10/04 00:53:00;;;;;;;;;;;25.00;99.90;;;;;;5032955;28;20372;-60
2022/10/04 00:55:33;;;;;;;;;;;24.90;99.90;;;;;;5033758;28;19920;-60
2022/10/04 00:58:00;;;;;;;;;;;24.80;99.90;;;;;;5033839;28;19912;-60
2022/10/04 01:00:25;;;;;;;;;;;24.60;99.90;;;;;;5045631;23;19944;-48
2022/10/04 01:02:51;;;;;;;;;;;24.50;99.90;;;;;;5033723;28;19905;-49
2022/10/04 01:05:23;;;;;;;;;;;24.40;99.90;;;;;;5033460;28;19912;-48
2022/10/04 01:07:51;;;;;;;;;;;24.40;99.90;;;;;;5033295;28;19924;-48
2022/10/04 01:10:20;;;;;;;;;;;24.20;99.90;;;;;;5033393;28;20352;-49
2022/10/04 01:12:51;;;;;;;;;;;24.20;99.90;;;;;;5033385;28;19966;-49
2022/10/04 01:15:25;;;;;;;;;;;24.10;99.90;;;;;;5033314;28;19909;-50
2022/10/04 01:18:06;;;;;;;;;;;24.00;99.90;;;;;;5033421;28;20378;-49
2022/10/04 01:20:33;;;;;;;;;;;23.90;99.90;;;;;;5033246;28;20271;-49
2022/10/04 01:22:58;;;;;;;;;;;23.80;99.90;;;;;;5033243;28;20316;-49
2022/10/04 01:25:42;;;;;;;;;;;23.80;99.90;;;;;;5033095;28;20003;-49
2022/10/04 01:28:08;;;;;;;;;;;23.70;99.90;;;;;;5033095;28;19913;-49
2022/10/04 01:30:34;;;;;;;;;;;23.70;99.90;;;;;;5033637;28;20319;-49
2022/10/04 01:33:00;;;;;;;;;;;23.60;99.90;;;;;;5033098;28;19905;-49
2022/10/04 01:35:27;;;;;;;;;;;23.60;99.90;;;;;;5015498;28;19905;-49
2022/10/04 01:37:54;;;;;;;;;;;23.50;99.90;;;;;;5033000;28;19991;-49
2022/10/04 01:40:20;;;;;;;;;;;23.50;99.90;;;;;;5032988;28;19905;-49
2022/10/04 01:42:51;;;;;;;;;;;23.50;99.90;;;;;;5032932;28;20356;-48
2022/10/04 01:45:30;;;;;;;;;;;23.50;99.90;;;;;;5032799;28;19912;-49
2022/10/04 01:48:00;;;;;;;;;;;23.50;99.90;;;;;;5032912;28;20252;-50
2022/10/04 01:50:31;;;;;;;;;;;23.50;99.90;;;;;;5032652;28;19909;-49
2022/10/04 01:53:01;;;;;;;;;;;23.40;99.90;;;;;;5032690;28;19916;-49
2022/10/04 01:55:33;;;;;;;;;;;23.40;99.90;;;;;;5032556;28;19905;-49
2022/10/04 01:58:06;;;;;;;;;;;23.40;99.90;;;;;;5032762;28;19905;-49
2022/10/04 02:00:32;;;;;;;;;;;23.40;99.90;;;;;;5044895;22;19928;-59
2022/10/04 02:02:59;;;;;;;;;;;23.30;99.90;;;;;;5032548;28;19904;-60
2022/10/04 02:05:29;;;;;;;;;;;23.40;99.90;;;;;;5032402;28;19905;-59
2022/10/04 02:07:55;;;;;;;;;;;23.30;99.90;;;;;;5032712;28;19963;-60
2022/10/04 02:10:21;;;;;;;;;;;23.40;99.90;;;;;;5032568;28;19911;-59
2022/10/04 02:12:49;;;;;;;;;;;23.30;99.90;;;;;;5032379;28;20012;-59
2022/10/04 02:15:17;;;;;;;;;;;23.30;99.90;;;;;;5031259;28;19909;-59
2022/10/04 02:17:43;;;;;;;;;;;23.30;99.90;;;;;;5032438;28;19905;-60
2022/10/04 02:20:11;;;;;;;;;;;23.20;99.90;;;;;;5032636;28;19905;-59
2022/10/04 02:22:37;;;;;;;;;;;23.20;99.90;;;;;;5030948;28;20368;-61
2022/10/04 02:25:06;;;;;;;;;;;23.20;99.90;;;;;;5025388;28;19909;-61
2022/10/04 02:27:32;;;;;;;;;;;23.20;99.90;;;;;;5022615;28;19944;-61
2022/10/04 02:30:05;;;;;;;;;;;23.20;99.90;;;;;;5020940;28;19909;-60
2022/10/04 02:35:16;;;;;;;;;;;23.30;99.90;;;;;;5023034;28;19919;-60
2022/10/04 02:37:42;;;;;;;;;;;23.40;99.90;;;;;;5023543;28;19909;-59
2022/10/04 02:40:11;;;;;;;;;;;23.40;99.90;;;;;;5016657;28;19967;-59
2022/10/04 02:42:38;;;;;;;;;;;23.40;99.90;;;;;;5012407;28;19913;-59
2022/10/04 02:45:07;;;;;;;;;;;23.40;99.90;;;;;;5012245;28;19909;-59
2022/10/04 02:47:44;;;;;;;;;;;23.50;99.90;;;;;;5012217;28;19917;-58
2022/10/04 02:50:39;;;;;;;;;;;23.50;99.90;;;;;;5012402;28;19913;-59
2022/10/04 02:53:25;;;;;;;;;;;23.50;99.90;;;;;;5003252;28;20344;-58
2022/10/04 02:55:51;;;;;;;;;;;23.50;99.90;;;;;;5012104;28;20249;-58
2022/10/04 02:58:18;;;;;;;;;;;23.50;99.90;;;;;;5012081;28;19906;-61
2022/10/04 03:00:49;;;;;;;;;;;23.50;99.90;;;;;;5025784;28;20386;-61
2022/10/04 03:03:18;;;;;;;;;;;23.50;99.90;;;;;;5031831;28;19978;-61
2022/10/04 03:05:46;;;;;;;;;;;23.50;99.90;;;;;;5030060;28;20348;-59
2022/10/04 03:08:13;;;;;;;;;;;23.50;99.90;;;;;;5030714;28;20382;-59
2022/10/04 03:10:41;;;;;;;;;;;23.50;99.90;;;;;;5031890;28;20550;-61
2022/10/04 03:13:07;;;;;;;;;;;23.50;99.90;;;;;;5031731;28;19905;-60
2022/10/04 03:15:33;;;;;;;;;;;23.50;99.90;;;;;;5031869;28;19913;-60
2022/10/04 03:17:58;;;;;;;;;;;23.50;99.90;;;;;;5035823;28;19999;-60
2022/10/04 03:20:24;;;;;;;;;;;23.50;99.90;;;;;;5035822;28;19912;-60
2022/10/04 03:22:54;;;;;;;;;;;23.50;99.90;;;;;;5035756;28;20282;-60
2022/10/04 03:25:34;;;;;;;;;;;23.40;99.90;;;;;;5035621;28;19912;-61
2022/10/04 03:28:00;;;;;;;;;;;23.40;99.90;;;;;;5034386;28;20322;-59
2022/10/04 03:30:26;;;;;;;;;;;23.40;99.90;;;;;;5035785;28;20283;-60
2022/10/04 03:32:52;;;;;;;;;;;23.40;99.90;;;;;;5035666;28;19948;-60
2022/10/04 03:35:29;;;;;;;;;;;23.40;99.90;;;;;;5035610;28;19970;-60
2022/10/04 03:37:56;;;;;;;;;;;23.40;99.90;;;;;;5035492;28;20380;-60
2022/10/04 03:40:26;;;;;;;;;;;23.40;99.90;;;;;;5035390;28;19905;-60
2022/10/04 03:42:52;;;;;;;;;;;23.40;99.90;;;;;;5035468;28;19905;-60
2022/10/04 03:45:19;;;;;;;;;;;23.40;99.90;;;;;;5035297;28;19988;-60
2022/10/04 03:47:47;;;;;;;;;;;23.30;99.90;;;;;;5035345;28;19949;-60
2022/10/04 03:50:12;;;;;;;;;;;23.30;99.90;;;;;;5035331;28;19909;-59
2022/10/04 03:52:41;;;;;;;;;;;23.30;99.90;;;;;;5035091;28;19966;-60
2022/10/04 03:55:08;;;;;;;;;;;23.20;99.90;;;;;;5035147;28;20249;-59
2022/10/04 03:57:35;;;;;;;;;;;23.30;99.90;;;;;;5035077;28;19945;-60
2022/10/04 04:00:03;;;;;;;;;;;23.20;99.90;;;;;;5039819;22;20015;-57
2022/10/04 04:02:33;;;;;;;;;;;23.20;99.90;;;;;;5015538;28;19916;-57
2022/10/04 04:04:58;;;;;;;;;;;23.20;99.90;;;;;;5014926;28;19909;-57
2022/10/04 04:07:27;;;;;;;;;;;23.20;99.90;;;;;;5014648;28;19913;-57
2022/10/04 04:10:11;;;;;;;;;;;23.10;99.90;;;;;;5014962;28;19905;-57
2022/10/04 04:12:39;;;;;;;;;;;23.10;99.90;;;;;;5015002;28;20014;-58
2022/10/04 04:15:08;;;;;;;;;;;23.10;99.90;;;;;;5014901;28;19905;-57
2022/10/04 04:17:36;;;;;;;;;;;23.10;99.90;;;;;;5014978;28;19905;-57
2022/10/04 04:20:03;;;;;;;;;;;23.10;99.90;;;;;;5014770;28;20364;-57
2022/10/04 04:22:30;;;;;;;;;;;23.00;99.90;;;;;;5014679;28;20416;-57
2022/10/04 04:24:59;;;;;;;;;;;23.00;99.90;;;;;;5014728;28;19985;-57
2022/10/04 04:27:25;;;;;;;;;;;23.00;99.90;;;;;;5013339;28;19919;-57
2022/10/04 04:29:51;;;;;;;;;;;23.00;99.90;;;;;;5014570;28;20294;-57
2022/10/04 04:32:24;;;;;;;;;;;23.00;99.90;;;;;;5014688;28;19905;-57
2022/10/04 04:34:56;;;;;;;;;;;23.00;99.90;;;;;;5014582;28;19960;-57
2022/10/04 04:37:22;;;;;;;;;;;23.00;99.90;;;;;;5014507;28;20000;-56
2022/10/04 04:39:51;;;;;;;;;;;23.00;99.90;;;;;;5014522;28;20356;-56
2022/10/04 04:42:20;;;;;;;;;;;22.90;99.90;;;;;;5014408;28;20429;-56
2022/10/04 04:44:51;;;;;;;;;;;22.90;99.90;;;;;;5014463;28;20392;-56
2022/10/04 04:47:35;;;;;;;;;;;22.90;99.90;;;;;;5014281;28;19920;-56
2022/10/04 04:50:06;;;;;;;;;;;22.90;99.90;;;;;;5013966;28;19959;-57
2022/10/04 04:52:33;;;;;;;;;;;22.80;99.90;;;;;;5014073;28;19909;-57
2022/10/04 04:54:59;;;;;;;;;;;22.80;99.90;;;;;;5014049;28;19948;-57
2022/10/04 04:57:24;;;;;;;;;;;22.80;99.90;;;;;;5014072;28;19912;-57
2022/10/04 04:59:58;;;;;;;;;;;22.70;99.90;;;;;;5013659;28;19917;-57
2022/10/04 05:02:36;;;;;;;;;;;22.70;99.90;;;;;;5014079;28;19912;-57
2022/10/04 05:05:09;;;;;;;;;;;22.70;99.90;;;;;;5013533;28;19905;-57
2022/10/04 05:07:34;;;;;;;;;;;22.60;99.90;;;;;;5013922;28;20067;-58
2022/10/04 05:10:00;;;;;;;;;;;22.60;99.90;;;;;;5013888;28;20403;-58
2022/10/04 05:12:26;;;;;;;;;;;22.60;99.90;;;;;;5013873;28;19909;-58
2022/10/04 05:14:53;;;;;;;;;;;22.60;99.90;;;;;;5013713;28;20367;-58
2022/10/04 05:17:21;;;;;;;;;;;22.50;99.90;;;;;;5013917;28;19909;-57
2022/10/04 05:19:47;;;;;;;;;;;22.50;99.90;;;;;;5013947;28;19912;-57
2022/10/04 05:22:16;;;;;;;;;;;22.50;99.90;;;;;;5013453;28;19906;-57
2022/10/04 05:24:43;;;;;;;;;;;22.50;99.90;;;;;;5013465;28;19905;-57
2022/10/04 05:27:15;;;;;;;;;;;22.50;99.90;;;;;;5013483;28;19920;-57
2022/10/04 05:29:49;;;;;;;;;;;22.50;99.90;;;;;;5013392;28;20364;-57
2022/10/04 05:32:34;;;;;;;;;;;22.40;99.90;;;;;;5013389;28;20312;-57
2022/10/04 05:35:00;;;;;;;;;;;22.50;99.90;;;;;;5013528;28;19905;-57
2022/10/04 05:37:29;;;;;;;;;;;22.50;99.90;;;;;;5012155;28;19905;-57
2022/10/04 05:40:14;;;;;;;;;;;22.40;99.90;;;;;;5013053;28;19984;-57
2022/10/04 05:42:44;;;;;;;;;;;22.50;99.90;;;;;;5012705;28;19905;-58
2022/10/04 05:45:15;;;;;;;;;;;22.40;99.90;;;;;;5013327;28;20358;-56
2022/10/04 05:47:41;;;;;;;;;;;22.40;99.90;;;;;;5013088;28;19913;-56
2022/10/04 05:50:13;;;;;;;;;;;22.40;99.90;;;;;;5011892;28;19951;-56
2022/10/04 05:52:39;;;;;;;;;;;22.40;99.90;;;;;;5011817;28;19905;-56
2022/10/04 05:55:15;;;;;;;;;;;22.40;99.90;;;;;;5012768;28;19913;-56
2022/10/04 05:57:54;;;;;;;;;;;22.50;99.90;;;;;;5013032;28;19906;-57
2022/10/04 06:00:20;;;;;;;;;;;22.40;99.90;;;;;;5012933;28;20408;-58
2022/10/04 06:02:53;;;;;;;;;;;22.40;99.90;;;;;;5012773;28;20000;-57
2022/10/04 06:05:25;;;;;;;;;;;22.40;99.90;;;;;;5012798;28;20443;-57
2022/10/04 06:07:51;;;;;;;;;;;22.40;99.90;;;;;;5012741;28;19913;-57
2022/10/04 06:10:36;;;;;;;;;;;22.40;99.90;;;;;;5012630;28;19915;-57
2022/10/04 06:13:07;;;;;;;;;;;22.40;99.90;;;;;;4993010;28;19906;-57
2022/10/04 06:15:43;;;;;;;;;;;22.40;99.90;;;;;;4993116;28;19906;-57
2022/10/04 06:18:12;;;;;;;;;;;22.50;99.90;;;;;;4993294;28;20280;-57
2022/10/04 06:20:37;;;;;;;;;;;22.50;99.90;;;;;;4992854;28;19905;-57
2022/10/04 06:23:05;;;;;;;;;;;22.40;99.90;;;;;;4992956;28;19913;-56
2022/10/04 06:25:38;;;;;;;;;;;22.50;99.90;;;;;;4992806;28;19936;-57
2022/10/04 06:28:04;;;;;;;;;;;22.50;99.90;;;;;;4992713;28;19921;-56
2022/10/04 06:30:35;;;;;;;;;;;22.50;99.90;;;;;;4992657;28;20000;-56
2022/10/04 06:33:19;;;;;;;;;;;22.50;99.90;;;;;;4992718;28;20434;-57
2022/10/04 06:35:51;;;;;;;;;;;22.50;99.90;;;;;;4992649;28;19928;-57
2022/10/04 06:38:21;;;;;;;;;;;22.50;99.90;;;;;;4992599;28;19905;-57
2022/10/04 06:41:05;;;;;;;;;;;22.50;99.90;;;;;;4992512;28;19906;-56
2022/10/04 06:43:36;;;;;;;;;;;22.50;99.90;;;;;;4992446;28;19927;-57
2022/10/04 06:46:16;;;;;;;;;;;22.50;99.90;;;;;;4992458;28;19968;-57
2022/10/04 06:48:47;;;;;;;;;;;22.50;99.90;;;;;;4992406;28;19906;-58
2022/10/04 06:51:19;;;;;;;;;;;22.50;99.90;;;;;;4991675;28;20261;-57
2022/10/04 06:54:03;;;;;;;;;;;22.50;99.90;;;;;;4992163;28;19906;-57
2022/10/04 06:56:49;;;;;;;;;;;22.50;99.90;;;;;;4992324;28;19905;-57
2022/10/04 06:59:17;;;;;;;;;;;22.60;99.90;;;;;;4991735;28;19913;-57
2022/10/04 07:01:52;;;;;;;;;;;22.60;99.90;;;;;;4992068;28;19918;-57
2022/10/04 07:04:36;;;;;;;;;;;22.60;99.90;;;;;;4992147;28;19909;-57
2022/10/04 07:07:34;;;;;;;;;;;22.60;99.90;;;;;;4992278;28;19955;-58
2022/10/04 07:10:02;;;;;;;;;;;22.60;99.90;;;;;;4986918;28;19906;-57
2022/10/04 07:12:30;;;;;;;;;;;22.70;99.90;;;;;;4992151;28;19905;-57
2022/10/04 07:14:59;;;;;;;;;;;22.70;99.90;;;;;;4992242;28;19960;-57
2022/10/04 07:17:37;;;;;;;;;;;22.70;99.90;;;;;;4992208;28;19906;-57
2022/10/04 07:20:04;;;;;;;;;;;22.70;99.90;;;;;;4992274;28;19944;-57
2022/10/04 07:22:33;;;;;;;;;;;22.70;99.90;;;;;;4992179;28;19941;-57
2022/10/04 07:25:13;;;;;;;;;;;22.70;99.90;;;;;;5007147;28;19914;-57
2022/10/04 07:27:41;;;;;;;;;;;22.70;99.90;;;;;;4991982;28;19913;-57
2022/10/04 07:30:10;;;;;;;;;;;22.70;99.90;;;;;;4991957;28;19971;-58
2022/10/04 07:32:37;;;;;;;;;;;22.80;99.90;;;;;;4992128;28;19932;-58
2022/10/04 07:35:12;;;;;;;;;;;22.80;99.90;;;;;;4992188;28;19905;-57
2022/10/04 07:37:59;;;;;;;;;;;22.80;99.90;;;;;;4992038;28;19996;-57
2022/10/04 07:40:31;;;;;;;;;;;22.90;99.90;;;;;;4992237;28;20012;-57
2022/10/04 07:43:06;;;;;;;;;;;22.90;99.90;;;;;;4992177;28;19909;-57
2022/10/04 07:45:34;;;;;;;;;;;22.90;99.90;;;;;;4991823;28;19906;-57
2022/10/04 07:48:18;;;;;;;;;;;22.90;99.90;;;;;;4991920;28;19921;-58
2022/10/04 07:50:46;;;;;;;;;;;22.90;99.90;;;;;;4992131;28;19906;-58
2022/10/04 07:53:17;;;;;;;;;;;22.90;99.90;;;;;;4991897;28;19905;-58
2022/10/04 07:55:54;;;;;;;;;;;23.00;99.90;;;;;;4991909;28;19916;-59
2022/10/04 07:58:19;;;;;;;;;;;23.00;99.90;;;;;;4994740;28;19916;-57
2022/10/04 08:00:47;;;;;;;;;;;23.10;99.90;;;;;;5010363;28;19917;-57
2022/10/04 08:03:25;;;;;;;;;;;23.10;99.90;;;;;;5013519;28;19940;-57
2022/10/04 08:05:57;;;;;;;;;;;23.10;99.90;;;;;;5014452;28;20161;-57
2022/10/04 08:08:41;;;;;;;;;;;23.10;99.90;;;;;;5014554;28;19907;-57
2022/10/04 08:11:16;;;;;;;;;;;23.10;99.90;;;;;;5011572;28;20345;-57
2022/10/04 08:13:59;;;;;;;;;;;23.20;99.90;;;;;;5014804;28;19906;-57
2022/10/04 08:16:29;;;;;;;;;;;23.20;99.90;;;;;;5014964;28;19912;-57
2022/10/04 08:19:14;;;;;;;;;;;23.20;99.90;;;;;;5014874;28;19917;-57
2022/10/04 08:22:05;;;;;;;;;;;23.20;99.90;;;;;;5014536;28;19905;-57
2022/10/04 08:24:34;;;;;;;;;;;23.20;99.90;;;;;;4993925;28;19910;-56
2022/10/04 08:27:05;;;;;;;;;;;23.10;99.90;;;;;;4995171;28;19956;-56
2022/10/04 08:29:49;;;;;;;;;;;23.10;99.90;;;;;;5001140;28;19917;-56
2022/10/04 08:32:33;;;;;;;;;;;23.10;99.90;;;;;;5013536;28;19928;-55
2022/10/04 08:35:10;;;;;;;;;;;23.10;99.90;;;;;;5006926;28;19913;-56
2022/10/04 08:37:52;;;;;;;;;;;23.00;99.90;;;;;;5010868;28;19943;-55
2022/10/04 08:40:18;;;;;;;;;;;23.10;99.90;;;;;;5013240;28;19956;-52
2022/10/04 08:43:16;;;;;;;;;;;23.00;99.90;;;;;;5013545;28;20345;-56
2022/10/04 08:46:02;;;;;;;;;;;23.10;99.90;;;;;;4977653;28;19905;-55
2022/10/04 08:48:56;;;;;;;;;;;23.10;99.90;;;;;;5012069;28;19905;-55
2022/10/04 08:51:22;;;;;;;;;;;23.10;99.90;;;;;;4983941;28;19905;-56
2022/10/04 08:54:07;;;;;;;;;;;23.10;99.90;;;;;;5012321;28;19964;-56
2022/10/04 08:56:51;;;;;;;;;;;23.20;99.90;;;;;;5011519;28;19912;-53
2022/10/04 08:59:19;;;;;;;;;;;23.20;99.90;;;;;;5009953;28;19909;-55
2022/10/04 09:01:45;;;;;;;;;;;23.20;99.90;;;;;;5013451;28;19971;-55
2022/10/04 09:04:20;;;;;;;;;;;23.30;99.90;;;;;;5013344;28;19905;-55
2022/10/04 09:06:58;;;;;;;;;;;23.30;99.90;;;;;;5011487;28;19913;-58
2022/10/04 09:09:43;;;;;;;;;;;23.30;99.90;;;;;;5011227;28;19906;-58
2022/10/04 09:12:27;;;;;;;;;;;23.40;99.90;;;;;;5011932;28;19909;-58
2022/10/04 09:15:07;;;;;;;;;;;23.40;99.90;;;;;;5011724;28;19909;-55
2022/10/04 09:17:45;;;;;;;;;;;23.40;99.90;;;;;;5012490;28;19912;-56
2022/10/04 09:20:32;;;;;;;;;;;23.50;99.90;;;;;;5012281;28;19912;-54
2022/10/04 09:23:15;;;;;;;;;;;23.50;99.90;;;;;;5013092;28;19949;-54
2022/10/04 09:25:41;;;;;;;;;;;23.60;99.90;;;;;;5010645;28;19928;-55
2022/10/04 09:28:14;;;;;;;;;;;23.80;99.90;;;;;;5010591;28;20051;-56
2022/10/04 09:30:46;;;;;;;;;;;23.80;99.90;;;;;;5011635;28;19913;-56
2022/10/04 09:33:24;;;;;;;;;;;23.90;99.90;;;;;;5012903;28;19988;-55
2022/10/04 09:36:08;;;;;;;;;;;24.00;99.90;;;;;;5011152;28;19909;-55
2022/10/04 09:38:34;;;;;;;;;;;24.10;99.90;;;;;;5011195;28;20375;-54
2022/10/04 09:41:19;;;;;;;;;;;24.20;99.90;;;;;;4998949;28;19906;-55
2022/10/04 09:43:50;;;;;;;;;;;24.20;99.90;;;;;;4997425;28;19909;-57
2022/10/04 09:46:39;;;;;;;;;;;24.30;99.90;;;;;;5023206;28;19917;-54
2022/10/04 09:49:07;;;;;;;;;;;24.30;99.90;;;;;;4991120;28;19984;-57
2022/10/04 09:51:38;;;;;;;;;;;24.40;99.90;;;;;;5009618;28;19913;-56
2022/10/04 09:54:23;;;;;;;;;;;24.40;99.90;;;;;;5010958;28;19905;-53
2022/10/04 09:57:05;;;;;;;;;;;24.50;99.90;;;;;;5006781;28;19918;-53
2022/10/04 09:59:52;;;;;;;;;;;24.50;99.90;;;;;;5006288;28;19917;-53
2022/10/04 10:02:27;;;;;;;;;;;24.60;99.90;;;;;;4998203;28;19916;-57
2022/10/04 10:05:11;;;;;;;;;;;24.70;99.90;;;;;;5010418;28;19906;-54
2022/10/04 10:07:57;;;;;;;;;;;24.70;99.90;;;;;;5008832;28;19913;-54
2022/10/04 10:13:43;;;;;;;;;;;24.80;99.90;;;;;;5007674;28;20414;-53
2022/10/04 10:16:17;;;;;;;;;;;24.90;99.90;;;;;;5006907;28;20450;-54
2022/10/04 10:18:43;;;;;;;;;;;24.90;99.90;;;;;;5008836;28;19906;-53
2022/10/04 10:21:20;;;;;;;;;;;25.00;99.90;;;;;;5006888;28;20264;-54
2022/10/04 10:24:08;;;;;;;;;;;25.00;99.90;;;;;;5005507;28;19966;-53
2022/10/04 10:26:56;;;;;;;;;;;25.00;99.90;;;;;;5009400;28;20348;-54
2022/10/04 10:29:31;;;;;;;;;;;24.90;99.90;;;;;;5005068;28;19909;-53
2022/10/04 10:32:08;;;;;;;;;;;25.00;99.90;;;;;;5008217;28;19905;-54
2022/10/04 10:34:41;;;;;;;;;;;25.00;99.90;;;;;;5007303;28;19913;-54
2022/10/04 10:37:23;;;;;;;;;;;25.00;99.90;;;;;;5007614;28;19917;-53
2022/10/04 10:39:51;;;;;;;;;;;25.00;99.90;;;;;;5009411;28;19914;-54
2022/10/04 10:42:17;;;;;;;;;;;25.10;99.90;;;;;;5009509;28;19905;-53
2022/10/04 10:44:55;;;;;;;;;;;25.10;99.90;;;;;;5009408;28;20312;-54
2022/10/04 10:47:25;;;;;;;;;;;25.20;99.90;;;;;;5007023;28;19921;-54
2022/10/04 10:50:06;;;;;;;;;;;25.30;99.90;;;;;;5005980;28;19909;-53
2022/10/04 10:52:41;;;;;;;;;;;25.30;99.90;;;;;;5009407;28;19909;-53
2022/10/04 10:55:18;;;;;;;;;;;25.40;99.90;;;;;;5007892;28;19906;-54
2022/10/04 10:57:50;;;;;;;;;;;25.50;99.90;;;;;;5009412;28;20398;-55
2022/10/04 11:00:20;;;;;;;;;;;25.60;99.90;;;;;;5009127;28;19960;-56
2022/10/04 11:03:12;;;;;;;;;;;25.70;99.90;;;;;;5009276;28;19917;-54
2022/10/04 11:05:37;;;;;;;;;;;25.70;99.90;;;;;;5006794;28;19932;-56
2022/10/04 11:08:22;;;;;;;;;;;25.80;99.90;;;;;;5005771;28;19913;-55
2022/10/04 11:11:06;;;;;;;;;;;25.90;99.90;;;;;;5009098;28;20320;-56
2022/10/04 11:13:58;;;;;;;;;;;26.00;99.90;;;;;;5009024;28;19905;-55
2022/10/04 11:16:50;;;;;;;;;;;26.10;99.90;;;;;;5006865;28;19913;-53
2022/10/04 11:19:19;;;;;;;;;;;26.20;99.90;;;;;;5006760;28;20245;-55
2022/10/04 11:21:50;;;;;;;;;;;26.30;99.90;;;;;;5008981;28;19916;-55
2022/10/04 11:24:31;;;;;;;;;;;26.40;99.90;;;;;;5009152;28;19928;-54
2022/10/04 11:27:02;;;;;;;;;;;26.50;99.90;;;;;;5008761;28;19929;-54
2022/10/04 11:29:30;;;;;;;;;;;26.60;99.90;;;;;;5008888;28;20151;-53
2022/10/04 11:31:59;;;;;;;;;;;26.70;99.90;;;;;;5007760;28;20016;-53
2022/10/04 11:34:40;;;;;;;;;;;26.80;99.90;;;;;;5008369;28;19906;-54
2022/10/04 11:37:29;;;;;;;;;;;26.90;99.90;;;;;;5009509;28;19975;-55
2022/10/04 11:40:10;;;;;;;;;;;27.00;99.90;;;;;;5011033;28;20012;-54
2022/10/04 11:42:38;;;;;;;;;;;27.00;99.90;;;;;;5012897;28;19906;-54
2022/10/04 11:45:20;;;;;;;;;;;27.20;99.90;;;;;;5008887;28;19909;-53
2022/10/04 11:47:45;;;;;;;;;;;27.20;99.90;;;;;;4995163;28;19913;-55
2022/10/04 11:50:20;;;;;;;;;;;27.30;99.90;;;;;;5004618;28;19916;-55
2022/10/04 11:52:54;;;;;;;;;;;27.30;99.90;;;;;;5013227;28;19906;-54
2022/10/04 11:55:25;;;;;;;;;;;27.40;99.90;;;;;;5014603;28;20341;-54
2022/10/04 11:57:57;;;;;;;;;;;27.40;99.90;;;;;;5014086;28;19905;-53
2022/10/04 12:00:24;;;;;;;;;;;27.50;99.90;;;;;;5014682;28;19995;-55
2022/10/04 12:03:09;;;;;;;;;;;27.50;99.90;;;;;;5014386;28;19960;-54
2022/10/04 12:05:48;;;;;;;;;;;27.60;99.90;;;;;;5014406;28;19905;-54
2022/10/04 12:08:40;;;;;;;;;;;27.50;99.90;;;;;;5010129;28;19921;-53
2022/10/04 12:11:09;;;;;;;;;;;27.50;99.90;;;;;;5008832;28;20390;-54
2022/10/04 12:13:42;;;;;;;;;;;27.50;99.90;;;;;;5014436;28;19905;-54
2022/10/04 12:16:16;;;;;;;;;;;27.50;99.90;;;;;;5014722;28;19905;-55
2022/10/04 12:18:42;;;;;;;;;;;27.40;99.90;;;;;;5013265;28;19917;-55
2022/10/04 12:21:19;;;;;;;;;;;27.40;99.90;;;;;;5015214;28;19909;-54
2022/10/04 12:23:58;;;;;;;;;;;27.40;99.90;;;;;;5014636;28;19909;-55
2022/10/04 12:26:31;;;;;;;;;;;27.40;99.90;;;;;;5014742;28;19914;-55
2022/10/04 12:29:00;;;;;;;;;;;27.30;99.90;;;;;;5013814;28;19909;-54
2022/10/04 12:31:34;;;;;;;;;;;27.30;99.90;;;;;;5014379;28;19908;-55
2022/10/04 12:34:02;;;;;;;;;;;27.30;99.90;;;;;;5014660;28;20305;-54
2022/10/04 12:36:47;;;;;;;;;;;27.30;99.90;;;;;;5014402;28;20380;-54
2022/10/04 12:39:19;;;;;;;;;;;27.30;99.90;;;;;;5014560;28;19905;-54
2022/10/04 12:41:50;;;;;;;;;;;27.30;99.90;;;;;;5014337;28;20280;-53
2022/10/04 12:44:35;;;;;;;;;;;27.40;99.90;;;;;;5014319;28;19948;-53
2022/10/04 12:47:36;;;;;;;;;;;27.40;99.90;;;;;;5007267;28;19958;-55
2022/10/04 12:50:10;;;;;;;;;;;27.50;99.90;;;;;;4952038;28;19966;-55
2022/10/04 12:52:45;;;;;;;;;;;27.50;99.90;;;;;;4991360;28;19959;-55
2022/10/04 12:55:17;;;;;;;;;;;27.40;99.90;;;;;;5014149;28;19967;-55
2022/10/04 12:57:43;;;;;;;;;;;27.30;99.90;;;;;;5014098;28;19905;-53
2022/10/04 13:00:19;;;;;;;;;;;27.40;99.90;;;;;;5001773;28;19921;-55
2022/10/04 13:03:09;;;;;;;;;;;27.40;99.90;;;;;;5004863;28;19909;-53
2022/10/04 13:06:04;;;;;;;;;;;27.40;99.90;;;;;;5002949;28;20412;-54
2022/10/04 13:08:46;;;;;;;;;;;27.40;99.90;;;;;;5008086;28;19913;-56
2022/10/04 13:11:19;;;;;;;;;;;27.40;99.90;;;;;;5016403;28;20280;-54
2022/10/04 13:13:47;;;;;;;;;;;27.40;99.90;;;;;;4999828;28;19940;-56
2022/10/04 13:16:22;;;;;;;;;;;27.40;99.90;;;;;;5013161;28;19905;-55
2022/10/04 13:18:51;;;;;;;;;;;27.40;99.90;;;;;;5013256;28;19909;-54
2022/10/04 13:21:26;;;;;;;;;;;27.40;99.90;;;;;;5013363;28;20349;-55
2022/10/04 13:23:58;;;;;;;;;;;27.40;99.90;;;;;;5013102;28;19913;-54
2022/10/04 13:26:43;;;;;;;;;;;27.40;99.90;;;;;;5006802;28;19921;-54
2022/10/04 13:29:14;;;;;;;;;;;27.30;99.90;;;;;;5010928;28;19988;-52
2022/10/04 13:32:06;;;;;;;;;;;27.20;99.90;;;;;;5012572;28;19905;-54
2022/10/04 13:34:48;;;;;;;;;;;27.20;99.90;;;;;;5008931;28;20246;-55
2022/10/04 13:37:14;;;;;;;;;;;27.10;99.90;;;;;;5005933;28;20350;-53
2022/10/04 13:39:46;;;;;;;;;;;27.00;99.90;;;;;;5012076;28;19909;-55
2022/10/04 13:42:30;;;;;;;;;;;27.00;99.90;;;;;;5012688;28;19901;-56
2022/10/04 13:45:02;;;;;;;;;;;27.00;99.90;;;;;;5007831;28;19933;-55
2022/10/04 13:47:43;;;;;;;;;;;27.10;99.90;;;;;;5001202;28;19924;-56
2022/10/04 13:50:25;;;;;;;;;;;27.10;99.90;;;;;;4997033;28;19960;-54
2022/10/04 13:58:44;;;;;;;;;;;27.00;99.90;;;;;;5001636;28;20309;-54
2022/10/04 14:01:28;;;;;;;;;;;27.00;99.90;;;;;;4992317;28;20068;-54
2022/10/04 14:04:00;;;;;;;;;;;26.90;99.90;;;;;;4992808;28;20272;-54
2022/10/04 14:06:25;;;;;;;;;;;26.80;99.90;;;;;;5018803;28;20023;-54
2022/10/04 14:09:00;;;;;;;;;;;26.70;99.90;;;;;;5005771;28;19912;-53
2022/10/04 14:11:29;;;;;;;;;;;26.60;99.90;;;;;;5009968;28;19978;-55
2022/10/04 14:14:09;;;;;;;;;;;26.60;99.90;;;;;;5006038;28;19960;-58
2022/10/04 14:16:55;;;;;;;;;;;26.50;99.90;;;;;;5009679;28;19906;-55
2022/10/04 14:19:21;;;;;;;;;;;26.40;99.90;;;;;;5008926;28;19913;-53
2022/10/04 14:22:16;;;;;;;;;;;26.40;99.90;;;;;;4996227;28;19914;-55
2022/10/04 14:25:00;;;;;;;;;;;26.30;99.90;;;;;;4972483;28;20025;-57
2022/10/04 14:27:37;;;;;;;;;;;26.20;99.90;;;;;;5004526;28;19917;-51
2022/10/04 14:30:11;;;;;;;;;;;26.20;99.90;;;;;;5008016;28;19905;-52
2022/10/04 14:32:55;;;;;;;;;;;26.20;99.90;;;;;;5008743;28;20000;-56
2022/10/04 14:35:27;;;;;;;;;;;26.20;99.90;;;;;;5008765;28;20388;-53
2022/10/04 14:37:52;;;;;;;;;;;26.10;99.90;;;;;;5006910;28;19917;-58
2022/10/04 14:40:33;;;;;;;;;;;26.00;99.90;;;;;;5009266;28;20533;-56
2022/10/04 14:43:18;;;;;;;;;;;26.00;99.90;;;;;;5008957;28;19912;-55
2022/10/04 14:45:43;;;;;;;;;;;26.10;99.90;;;;;;5009181;28;19951;-53
2022/10/04 14:48:16;;;;;;;;;;;26.20;99.90;;;;;;5006385;28;19957;-53
2022/10/04 14:50:56;;;;;;;;;;;26.30;99.90;;;;;;5006921;28;19909;-52
2022/10/04 14:53:27;;;;;;;;;;;26.30;99.90;;;;;;4999826;28;19925;-53
2022/10/04 14:56:01;;;;;;;;;;;26.50;99.90;;;;;;5006604;28;19909;-54
2022/10/04 14:58:39;;;;;;;;;;;26.50;99.90;;;;;;5008223;28;19906;-55
2022/10/04 15:01:19;;;;;;;;;;;26.40;99.90;;;;;;5006387;28;20249;-56
2022/10/04 15:04:05;;;;;;;;;;;26.30;99.90;;;;;;5008764;28;19916;-53
2022/10/04 15:06:49;;;;;;;;;;;26.30;99.90;;;;;;5009021;28;20058;-56